Kitimat, Canada
Current Conditions -  °F | °C
As of 8:00 AM on Thursday 18 Dec 2014 (Local Time) from CYXT Reporting Station
Overcast Overcast  
Wind Chill: 22°   Ceiling: 8000
Heat Index: 28°   Visibility: 15mi
Dew Point: 25°   Wind: 6mph
Humidity: 86%   Direction: 60°ENE
Pressure: 29.69"   Gusts: NA
Location:  54°N, 128.7°W
Report Text: CYXT 181600Z 06005KT 15SM SCT030 BKN080 OVC120 M02/M04 A2969 RMK SC3AC3AC2 SLP064
Loading
Personal Weather Stations






























Interactive Weather Map New forecast layout! Learn more

10-Day Weather Forecast

Advertisements
Track Severe Weather on mobile